In Rescue
 
Open Full Screen Window  High Contrast Mode
Wind Gusting 00 knots
11
June 22, 2024 9:20 PM CDT
Weather Information
Wind Direction
  320 °
Wind Speed
  11 kt (13 mph)
Wind Gust
  00 kt (0 mph)
Altimeter
29.79 in
Visibility
10 SM
Temperature
20° C
68° F
Dewpoint
18° C
64° F
Humidity
88%
Sky Condition
Overcast @ 1,500 ft
Broken @ 1,000 ft
MVFR

METAR KSYN 230220Z AUTO 32011KT 10SM BKN010 OVC015 20/18 A2979 RMK AO2 T02000180

FAA Disclaimer: The data displayed is for advisory purposes only and is not to be used for flight planning or operations.